Time;durP1;ratioP1;P1;durP2;ratioP2;P2;SDS_P1;SDS_P2;PMS_P1;PMS_P2;Temp;Humidity;BMP_temperature;BMP_pressure;BME280_temperature;BME280_humidity;BME280_pressure;Samples;Min_cycle;Max_cycle;Signal;HPM_P1;HPM_P2
2021/10/29 00:01:49;;;;;;;;;14.25;14.25;;;;;;;;5055961;28;45445;-71
2021/10/29 00:04:14;;;;;;;;;15.25;14.00;;;;;;;;5055976;28;45292;-69
2021/10/29 00:06:40;;;;;;;;;16.00;14.25;;;;;;;;5055955;28;45733;-69
2021/10/29 00:09:05;;;;;;;;;12.25;12.25;;;;;;;;5054374;28;45464;-70
2021/10/29 00:11:30;;;;;;;;;16.50;16.50;;;;;;;;5055575;28;45439;-69
2021/10/29 00:13:55;;;;;;;;;15.75;15.75;;;;;;;;5055144;28;46176;-69
2021/10/29 00:16:20;;;;;;;;;13.25;13.25;;;;;;;;5055477;28;45374;-70
2021/10/29 00:18:46;;;;;;;;;15.75;14.25;;;;;;;;5057824;28;45382;-71
2021/10/29 00:21:11;;;;;;;;;13.00;12.00;;;;;;;;5055487;28;45437;-69
2021/10/29 00:23:36;;;;;;;;;14.75;14.75;;;;;;;;5055138;28;46185;-69
2021/10/29 00:26:01;;;;;;;;;18.25;15.50;;;;;;;;5055364;28;45573;-69
2021/10/29 00:28:27;;;;;;;;;15.00;15.00;;;;;;;;5055298;28;45474;-70
2021/10/29 00:30:53;;;;;;;;;14.25;13.75;;;;;;;;5057303;28;45283;-70
2021/10/29 00:33:18;;;;;;;;;13.00;12.50;;;;;;;;5054875;28;45466;-69
2021/10/29 00:35:44;;;;;;;;;13.50;13.50;;;;;;;;5055049;28;45215;-69
2021/10/29 00:38:10;;;;;;;;;15.00;14.75;;;;;;;;5054612;28;45301;-70
2021/10/29 00:40:38;;;;;;;;;13.00;13.00;;;;;;;;5055206;28;45422;-70
2021/10/29 00:43:03;;;;;;;;;16.25;16.25;;;;;;;;5055555;28;46198;-71
2021/10/29 00:45:28;;;;;;;;;16.25;13.25;;;;;;;;5054060;28;45346;-70
2021/10/29 00:47:53;;;;;;;;;17.00;14.25;;;;;;;;5053333;28;45549;-70
2021/10/29 00:50:19;;;;;;;;;16.00;14.00;;;;;;;;5036648;28;45537;-70
2021/10/29 00:52:44;;;;;;;;;16.50;12.50;;;;;;;;5054818;28;45379;-70
2021/10/29 00:55:10;;;;;;;;;17.50;15.75;;;;;;;;5055269;28;45350;-71
2021/10/29 00:57:38;;;;;;;;;16.00;13.50;;;;;;;;5056322;28;45466;-71
2021/10/29 01:00:04;;;;;;;;;16.25;15.00;;;;;;;;5054691;28;45562;-70
2021/10/29 01:02:29;;;;;;;;;19.25;15.25;;;;;;;;5054280;28;46026;-68
2021/10/29 01:04:56;;;;;;;;;14.50;14.50;;;;;;;;5054279;28;45261;-72
2021/10/29 01:07:22;;;;;;;;;13.25;13.25;;;;;;;;5054781;28;45320;-70
2021/10/29 01:09:47;;;;;;;;;16.00;15.75;;;;;;;;5056717;28;45384;-70
2021/10/29 01:12:12;;;;;;;;;17.00;16.50;;;;;;;;5054004;28;46436;-70
2021/10/29 01:14:37;;;;;;;;;14.25;14.00;;;;;;;;5054459;28;45392;-69
2021/10/29 01:17:04;;;;;;;;;17.75;14.00;;;;;;;;5054704;28;45569;-71
2021/10/29 01:19:33;;;;;;;;;19.00;16.25;;;;;;;;5054572;28;45353;-70
2021/10/29 01:22:00;;;;;;;;;18.00;14.75;;;;;;;;5056405;28;45312;-71
2021/10/29 01:24:25;;;;;;;;;18.50;13.00;;;;;;;;5053314;28;45458;-69
2021/10/29 01:26:51;;;;;;;;;23.25;20.50;;;;;;;;5052398;28;45332;-70
2021/10/29 01:29:17;;;;;;;;;18.50;14.50;;;;;;;;5053982;28;45728;-69
2021/10/29 01:31:42;;;;;;;;;14.00;13.00;;;;;;;;5053951;28;45373;-70
2021/10/29 01:34:07;;;;;;;;;14.25;14.25;;;;;;;;5054759;28;45579;-70
2021/10/29 01:36:32;;;;;;;;;14.75;13.00;;;;;;;;5055894;28;45328;-71
2021/10/29 01:38:57;;;;;;;;;17.25;14.75;;;;;;;;5054308;28;45534;-70
2021/10/29 01:41:23;;;;;;;;;15.75;15.50;;;;;;;;5053724;28;46014;-70
2021/10/29 01:43:48;;;;;;;;;12.25;10.75;;;;;;;;5054049;28;45363;-70
2021/10/29 01:46:14;;;;;;;;;16.25;13.50;;;;;;;;5054226;28;45391;-70
2021/10/29 01:48:47;;;;;;;;;14.25;13.25;;;;;;;;5055981;28;45557;-70
2021/10/29 01:51:13;;;;;;;;;11.50;11.00;;;;;;;;5053496;28;46818;-70
2021/10/29 01:53:39;;;;;;;;;13.50;10.25;;;;;;;;5053541;28;45581;-70
2021/10/29 01:56:04;;;;;;;;;11.00;11.00;;;;;;;;5053886;28;45518;-71
2021/10/29 01:58:30;;;;;;;;;17.50;16.25;;;;;;;;5054117;28;45280;-70
2021/10/29 02:00:55;;;;;;;;;16.00;14.75;;;;;;;;5056106;28;46362;-70
2021/10/29 02:03:20;;;;;;;;;14.50;14.00;;;;;;;;5051981;28;45457;-70
2021/10/29 02:05:45;;;;;;;;;12.00;10.75;;;;;;;;5052388;28;45335;-70
2021/10/29 02:08:11;;;;;;;;;13.25;13.25;;;;;;;;5053960;28;45425;-70
2021/10/29 02:10:36;;;;;;;;;16.75;13.50;;;;;;;;5053265;28;45335;-70
2021/10/29 02:13:02;;;;;;;;;17.50;16.50;;;;;;;;5054958;28;45297;-70
2021/10/29 02:15:27;;;;;;;;;13.25;13.25;;;;;;;;5054498;28;45333;-70
2021/10/29 02:17:52;;;;;;;;;12.00;10.00;;;;;;;;5053608;28;45449;-70
2021/10/29 02:20:18;;;;;;;;;16.00;13.25;;;;;;;;5053471;28;45321;-70
2021/10/29 02:22:43;;;;;;;;;12.75;12.00;;;;;;;;5053557;28;45432;-70
2021/10/29 02:25:08;;;;;;;;;12.75;12.50;;;;;;;;5054060;28;45354;-70
2021/10/29 02:27:34;;;;;;;;;11.25;11.25;;;;;;;;5055280;28;45331;-70
2021/10/29 02:29:59;;;;;;;;;16.75;12.75;;;;;;;;5053163;28;45366;-70
2021/10/29 02:32:24;;;;;;;;;11.25;10.50;;;;;;;;5035232;28;46092;-69
2021/10/29 02:34:49;;;;;;;;;13.00;12.25;;;;;;;;5053420;28;45474;-70
2021/10/29 02:37:14;;;;;;;;;14.00;14.00;;;;;;;;5053500;28;45253;-69
2021/10/29 02:39:40;;;;;;;;;11.50;11.50;;;;;;;;5054913;28;46487;-71
2021/10/29 02:42:05;;;;;;;;;17.25;14.25;;;;;;;;5051665;28;45498;-69
2021/10/29 02:44:31;;;;;;;;;12.50;8.00;;;;;;;;5051847;28;45283;-70
2021/10/29 02:46:56;;;;;;;;;12.75;10.75;;;;;;;;5053252;28;45725;-70
2021/10/29 02:49:21;;;;;;;;;14.50;12.00;;;;;;;;5052767;28;46119;-69
2021/10/29 02:51:46;;;;;;;;;14.00;11.50;;;;;;;;5055121;28;45625;-70
2021/10/29 02:54:12;;;;;;;;;9.25;8.25;;;;;;;;5052585;28;47469;-70
2021/10/29 02:56:37;;;;;;;;;12.75;10.50;;;;;;;;5052910;28;45573;-70
2021/10/29 02:59:03;;;;;;;;;10.75;10.75;;;;;;;;5052691;28;45288;-71
2021/10/29 03:01:28;;;;;;;;;12.00;10.00;;;;;;;;5052826;28;45522;-69
2021/10/29 03:03:53;;;;;;;;;13.25;12.75;;;;;;;;5055258;28;45325;-69
2021/10/29 03:06:18;;;;;;;;;8.75;8.75;;;;;;;;5052578;28;45406;-69
2021/10/29 03:08:44;;;;;;;;;13.00;12.25;;;;;;;;5052863;28;47242;-69
2021/10/29 03:11:09;;;;;;;;;14.00;13.00;;;;;;;;5052725;28;47288;-69
2021/10/29 03:13:34;;;;;;;;;10.75;10.75;;;;;;;;5034964;28;45477;-71
2021/10/29 03:15:59;;;;;;;;;10.75;10.75;;;;;;;;5054055;28;45544;-70
2021/10/29 03:18:24;;;;;;;;;12.00;11.00;;;;;;;;5053305;28;45404;-69
2021/10/29 03:20:50;;;;;;;;;16.25;13.50;;;;;;;;5050342;28;45533;-69
2021/10/29 03:23:16;;;;;;;;;12.50;12.00;;;;;;;;5051114;28;45406;-70
2021/10/29 03:25:42;;;;;;;;;11.25;11.25;;;;;;;;5052598;28;45434;-71
2021/10/29 03:28:08;;;;;;;;;13.25;11.75;;;;;;;;5052361;28;46060;-70
2021/10/29 03:30:34;;;;;;;;;8.00;6.50;;;;;;;;5054017;28;45497;-70
2021/10/29 03:32:59;;;;;;;;;13.50;11.50;;;;;;;;5052794;28;45272;-68
2021/10/29 03:35:25;;;;;;;;;13.50;12.50;;;;;;;;5052051;28;45438;-69
2021/10/29 03:45:25;;;;;;;;;12.75;11.50;;;;;;;;5052769;28;45288;-70
2021/10/29 03:47:54;;;;;;;;;11.00;9.25;;;;;;;;5051430;28;45399;-70
2021/10/29 03:50:29;;;;;;;;;13.75;10.75;;;;;;;;5051586;28;45475;-70
2021/10/29 03:53:06;;;;;;;;;12.50;10.75;;;;;;;;5052127;28;45660;-69
2021/10/29 03:55:42;;;;;;;;;10.00;10.00;;;;;;;;5037050;28;45459;-70
2021/10/29 03:58:07;;;;;;;;;11.00;11.00;;;;;;;;5052738;28;47170;-69
2021/10/29 04:00:35;;;;;;;;;12.50;10.25;;;;;;;;5051835;28;45301;-71
2021/10/29 04:03:03;;;;;;;;;11.50;10.00;;;;;;;;5050674;28;45418;-70
2021/10/29 04:05:28;;;;;;;;;12.75;12.25;;;;;;;;5051539;28;45517;-69
2021/10/29 04:07:54;;;;;;;;;14.00;12.00;;;;;;;;5051326;28;47178;-70
2021/10/29 04:10:24;;;;;;;;;12.00;11.50;;;;;;;;5051639;28;45473;-70
2021/10/29 04:12:49;;;;;;;;;10.00;9.50;;;;;;;;5054787;28;45383;-69
2021/10/29 04:15:14;;;;;;;;;13.50;13.50;;;;;;;;5054901;28;45433;-69
2021/10/29 04:17:39;;;;;;;;;10.25;9.25;;;;;;;;5054513;28;45878;-70
2021/10/29 04:20:05;;;;;;;;;9.25;7.00;;;;;;;;5053366;28;45234;-71
2021/10/29 04:22:30;;;;;;;;;13.00;11.00;;;;;;;;5054485;28;45519;-71
2021/10/29 04:24:55;;;;;;;;;11.50;9.50;;;;;;;;5056981;28;45530;-71
2021/10/29 04:27:23;;;;;;;;;11.75;10.75;;;;;;;;5054575;28;46955;-71
2021/10/29 04:29:50;;;;;;;;;10.50;9.50;;;;;;;;5054145;28;45563;-71
2021/10/29 04:32:16;;;;;;;;;11.50;10.50;;;;;;;;5054412;28;45506;-71
2021/10/29 04:34:41;;;;;;;;;10.75;9.50;;;;;;;;5054298;28;45431;-71
2021/10/29 04:37:06;;;;;;;;;10.00;9.00;;;;;;;;5054923;28;47052;-71
2021/10/29 04:39:32;;;;;;;;;11.00;10.75;;;;;;;;5054160;28;45514;-71
2021/10/29 04:41:57;;;;;;;;;6.75;6.75;;;;;;;;5052915;28;45535;-71
2021/10/29 04:44:22;;;;;;;;;9.75;9.75;;;;;;;;5053136;28;45426;-71
2021/10/29 04:46:48;;;;;;;;;10.75;9.00;;;;;;;;5054215;28;45406;-70
2021/10/29 04:49:13;;;;;;;;;11.75;11.75;;;;;;;;5053336;28;47680;-71
2021/10/29 04:51:38;;;;;;;;;11.00;10.00;;;;;;;;5055913;28;45230;-70
2021/10/29 04:54:04;;;;;;;;;9.00;9.00;;;;;;;;5054117;28;45403;-70
2021/10/29 04:56:29;;;;;;;;;11.75;11.75;;;;;;;;5035887;28;45902;-70
2021/10/29 04:58:55;;;;;;;;;11.25;9.75;;;;;;;;5054261;28;45467;-70
2021/10/29 05:01:20;;;;;;;;;7.75;7.00;;;;;;;;5054179;28;45343;-70
2021/10/29 05:03:45;;;;;;;;;10.00;9.50;;;;;;;;5055732;28;45326;-70
2021/10/29 05:06:11;;;;;;;;;10.75;10.75;;;;;;;;5053083;28;45464;-70
2021/10/29 05:08:37;;;;;;;;;10.25;10.25;;;;;;;;5053954;28;45376;-71
2021/10/29 05:11:03;;;;;;;;;13.00;10.75;;;;;;;;5053712;28;45698;-71
2021/10/29 05:13:28;;;;;;;;;7.00;7.00;;;;;;;;5053659;28;45483;-70
2021/10/29 05:15:53;;;;;;;;;9.50;9.50;;;;;;;;5056615;28;47161;-70
2021/10/29 05:18:20;;;;;;;;;10.25;10.00;;;;;;;;5051623;28;45377;-70
2021/10/29 05:20:46;;;;;;;;;11.00;11.00;;;;;;;;5052157;28;45298;-70
2021/10/29 05:23:11;;;;;;;;;9.75;9.75;;;;;;;;5053431;28;45345;-71
2021/10/29 05:25:36;;;;;;;;;15.00;11.75;;;;;;;;5053802;28;46272;-70
2021/10/29 05:28:02;;;;;;;;;10.25;8.75;;;;;;;;5054642;28;45271;-71
2021/10/29 05:30:27;;;;;;;;;14.25;11.00;;;;;;;;5053120;28;45373;-71
2021/10/29 05:32:52;;;;;;;;;9.00;9.00;;;;;;;;5033535;28;45558;-71
2021/10/29 05:35:18;;;;;;;;;14.00;13.00;;;;;;;;5052696;28;45460;-71
2021/10/29 05:37:43;;;;;;;;;9.00;7.75;;;;;;;;5034788;28;45322;-71
2021/10/29 05:40:08;;;;;;;;;12.75;12.75;;;;;;;;5053005;28;45363;-72
2021/10/29 05:42:34;;;;;;;;;12.25;11.00;;;;;;;;5054387;28;45403;-74
2021/10/29 05:45:00;;;;;;;;;9.25;8.00;;;;;;;;5052135;28;45320;-71
2021/10/29 05:47:25;;;;;;;;;10.75;8.50;;;;;;;;5050672;28;45292;-69
2021/10/29 05:49:50;;;;;;;;;11.50;8.00;;;;;;;;5052314;28;45396;-71
2021/10/29 05:52:19;;;;;;;;;11.50;8.75;;;;;;;;5052650;28;45289;-71
2021/10/29 05:55:18;;;;;;;;;14.00;11.00;;;;;;;;5054336;28;45422;-70
2021/10/29 05:57:35;;;;;;;;;11.50;10.25;;;;;;;;5049263;28;45351;-71
2021/10/29 06:00:01;;;;;;;;;14.00;10.75;;;;;;;;5051377;28;45453;-71
2021/10/29 06:02:26;;;;;;;;;16.75;11.00;;;;;;;;5052257;28;45388;-70
2021/10/29 06:04:51;;;;;;;;;7.50;7.50;;;;;;;;5051932;28;46337;-71
2021/10/29 06:07:16;;;;;;;;;7.75;7.75;;;;;;;;5051716;28;45420;-71
2021/10/29 06:09:42;;;;;;;;;9.00;8.25;;;;;;;;5054016;28;45481;-70
2021/10/29 06:12:07;;;;;;;;;10.75;10.75;;;;;;;;5051951;28;45411;-72
2021/10/29 06:14:34;;;;;;;;;10.25;8.25;;;;;;;;5033908;28;48484;-70
2021/10/29 06:17:00;;;;;;;;;14.00;12.50;;;;;;;;5051815;28;45311;-70
2021/10/29 06:19:26;;;;;;;;;11.50;10.00;;;;;;;;5035966;28;45255;-70
2021/10/29 06:24:27;;;;;;;;;12.00;12.00;;;;;;;;5051531;28;45344;-69
2021/10/29 06:27:00;;;;;;;;;11.00;9.00;;;;;;;;5052208;28;45463;-71
2021/10/29 06:29:25;;;;;;;;;12.50;10.75;;;;;;;;5051386;28;45395;-71
2021/10/29 06:31:50;;;;;;;;;11.00;9.25;;;;;;;;5052325;28;45418;-71
2021/10/29 06:34:15;;;;;;;;;11.00;8.25;;;;;;;;5051817;28;47463;-71
2021/10/29 06:36:41;;;;;;;;;10.75;10.25;;;;;;;;5050959;28;45614;-71
2021/10/29 06:39:07;;;;;;;;;14.75;9.75;;;;;;;;5049791;28;45465;-71
2021/10/29 06:41:32;;;;;;;;;9.25;9.25;;;;;;;;5051839;28;45555;-71
2021/10/29 06:59:51;;;;;;;;;10.75;10.50;;;;;;;;5050849;28;45631;-71
2021/10/29 07:05:17;;;;;;;;;8.50;8.50;;;;;;;;5050249;28;46241;-71
2021/10/29 07:40:15;;;;;;;;;10.00;9.25;;;;;;;;5048348;28;45433;-72
2021/10/29 07:45:16;;;;;;;;;11.50;7.50;;;;;;;;5050113;28;45406;-72
2021/10/29 07:47:42;;;;;;;;;5.75;5.00;;;;;;;;5050840;28;45426;-69
2021/10/29 07:50:09;;;;;;;;;11.75;8.00;;;;;;;;5053575;28;45343;-70
2021/10/29 07:52:36;;;;;;;;;11.50;9.00;;;;;;;;5053739;28;45345;-69
2021/10/29 07:55:01;;;;;;;;;8.50;6.00;;;;;;;;5055705;28;45517;-70
2021/10/29 07:57:27;;;;;;;;;6.75;5.75;;;;;;;;5052421;28;46065;-70
2021/10/29 07:59:52;;;;;;;;;8.50;4.00;;;;;;;;5053822;28;45368;-69
2021/10/29 08:02:18;;;;;;;;;9.00;8.00;;;;;;;;5053658;28;45372;-70
2021/10/29 08:04:44;;;;;;;;;6.00;6.00;;;;;;;;5053373;28;45594;-70
2021/10/29 08:07:09;;;;;;;;;5.00;5.00;;;;;;;;5035746;28;48117;-70
2021/10/29 08:09:34;;;;;;;;;8.00;7.00;;;;;;;;5054702;28;45435;-70
2021/10/29 08:12:00;;;;;;;;;5.00;5.00;;;;;;;;5052790;28;45470;-69
2021/10/29 08:14:25;;;;;;;;;7.50;7.50;;;;;;;;5053656;28;45378;-70
2021/10/29 08:16:51;;;;;;;;;9.50;7.00;;;;;;;;5053004;28;46019;-71
2021/10/29 08:19:37;;;;;;;;;7.25;7.00;;;;;;;;5053242;28;45503;-70
2021/10/29 08:22:03;;;;;;;;;4.50;4.25;;;;;;;;5051390;28;45418;-71
2021/10/29 08:24:29;;;;;;;;;9.25;9.25;;;;;;;;5054199;28;45502;-71
2021/10/29 08:26:55;;;;;;;;;6.75;6.00;;;;;;;;5053048;28;46177;-69
2021/10/29 08:29:20;;;;;;;;;7.50;7.50;;;;;;;;5053208;28;45416;-70
2021/10/29 08:31:46;;;;;;;;;7.00;6.75;;;;;;;;5051843;28;45524;-70
2021/10/29 08:34:12;;;;;;;;;12.25;7.00;;;;;;;;5054356;28;45207;-70
2021/10/29 08:36:39;;;;;;;;;7.00;6.50;;;;;;;;5052946;28;45563;-71
2021/10/29 08:39:06;;;;;;;;;7.50;6.75;;;;;;;;5053157;28;45403;-70
2021/10/29 08:41:32;;;;;;;;;11.00;6.25;;;;;;;;5052877;28;45438;-69
2021/10/29 08:43:58;;;;;;;;;7.00;6.00;;;;;;;;5052966;28;45430;-69
2021/10/29 08:46:25;;;;;;;;;6.00;6.00;;;;;;;;5052717;28;46268;-70
2021/10/29 08:48:51;;;;;;;;;7.50;6.50;;;;;;;;5054221;28;45537;-70
2021/10/29 08:51:17;;;;;;;;;6.50;6.50;;;;;;;;5052660;28;45354;-70
2021/10/29 08:53:43;;;;;;;;;5.25;5.25;;;;;;;;5052880;28;45410;-70
2021/10/29 08:56:09;;;;;;;;;7.75;7.00;;;;;;;;5052717;28;46136;-70
2021/10/29 08:58:54;;;;;;;;;11.75;11.75;;;;;;;;5052906;28;45517;-71
2021/10/29 09:01:20;;;;;;;;;9.50;7.00;;;;;;;;5053088;28;45367;-69
2021/10/29 09:03:48;;;;;;;;;7.00;7.00;;;;;;;;5054743;28;45295;-69
2021/10/29 09:09:03;;;;;;;;;6.25;6.00;;;;;;;;5052702;28;45397;-73
2021/10/29 09:11:43;;;;;;;;;8.00;8.00;;;;;;;;5051103;28;45383;-70
2021/10/29 09:17:15;;;;;;;;;8.00;7.50;;;;;;;;5052503;28;45354;-69
2021/10/29 09:33:59;;;;;;;;;10.00;7.50;;;;;;;;5054795;28;45301;-70
2021/10/29 09:36:38;;;;;;;;;7.50;7.50;;;;;;;;5053457;28;47222;-70
2021/10/29 09:39:03;;;;;;;;;7.00;7.00;;;;;;;;5051439;28;45549;-70
2021/10/29 09:41:29;;;;;;;;;11.00;9.00;;;;;;;;5052137;28;45822;-70
2021/10/29 09:44:01;;;;;;;;;8.00;5.75;;;;;;;;5052538;28;45581;-71
2021/10/29 09:46:30;;;;;;;;;10.75;7.75;;;;;;;;5047588;28;45501;-70
2021/10/29 09:49:04;;;;;;;;;9.25;7.25;;;;;;;;5049729;28;45347;-71
2021/10/29 09:51:34;;;;;;;;;9.00;8.00;;;;;;;;5049986;28;45371;-68
2021/10/29 09:54:02;;;;;;;;;9.00;7.50;;;;;;;;5050275;28;45382;-71
2021/10/29 09:58:56;;;;;;;;;7.00;6.50;;;;;;;;5051525;28;45484;-70
2021/10/29 10:01:24;;;;;;;;;7.25;6.00;;;;;;;;5052092;28;45538;-71
2021/10/29 10:03:50;;;;;;;;;13.25;10.00;;;;;;;;5054830;28;45360;-70
2021/10/29 10:06:17;;;;;;;;;6.50;5.00;;;;;;;;5052797;28;45526;-71
2021/10/29 10:08:43;;;;;;;;;7.00;7.00;;;;;;;;5051314;28;46227;-71
2021/10/29 10:11:09;;;;;;;;;10.00;10.00;;;;;;;;5051194;28;45590;-70
2021/10/29 10:13:35;;;;;;;;;10.50;10.50;;;;;;;;5052698;28;45506;-69
2021/10/29 10:16:02;;;;;;;;;6.75;6.50;;;;;;;;5053455;28;45385;-70
2021/10/29 10:18:28;;;;;;;;;5.75;5.75;;;;;;;;5035531;28;46968;-70
2021/10/29 10:20:55;;;;;;;;;8.25;8.25;;;;;;;;5052221;28;45432;-70
2021/10/29 10:23:25;;;;;;;;;7.00;6.00;;;;;;;;5051502;28;45485;-70
2021/10/29 10:28:59;;;;;;;;;16.00;14.75;;;;;;;;5051808;28;46171;-69
2021/10/29 10:45:57;;;;;;;;;10.25;8.00;;;;;;;;5050613;28;45429;-72
2021/10/29 10:48:22;;;;;;;;;9.75;9.25;;;;;;;;5050703;28;45430;-72
2021/10/29 10:50:48;;;;;;;;;10.25;8.75;;;;;;;;5051177;28;46157;-72
2021/10/29 10:53:31;;;;;;;;;8.50;8.00;;;;;;;;5051002;28;45447;-72
2021/10/29 10:56:15;;;;;;;;;6.75;6.00;;;;;;;;5050937;28;45553;-72
2021/10/29 11:02:18;;;;;;;;;11.50;10.25;;;;;;;;5051370;28;45417;-71
2021/10/29 11:07:48;;;;;;;;;8.75;7.50;;;;;;;;5049546;28;45323;-72
2021/10/29 11:10:11;;;;;;;;;2.00;2.00;;;;;;;;5052996;28;45612;-72
2021/10/29 11:12:40;;;;;;;;;13.75;11.75;;;;;;;;5052831;28;46190;-71
2021/10/29 11:15:11;;;;;;;;;12.75;9.75;;;;;;;;5050750;28;45260;-71
2021/10/29 11:17:44;;;;;;;;;17.00;12.75;;;;;;;;5050684;28;45614;-71
2021/10/29 11:20:10;;;;;;;;;10.00;8.00;;;;;;;;5032493;28;45581;-71
2021/10/29 11:22:44;;;;;;;;;11.50;8.50;;;;;;;;5052376;28;46886;-71
2021/10/29 11:25:11;;;;;;;;;9.75;7.25;;;;;;;;5054824;28;45923;-73
2021/10/29 11:27:40;;;;;;;;;12.25;11.00;;;;;;;;5056420;28;45515;-73
2021/10/29 11:30:06;;;;;;;;;10.75;8.25;;;;;;;;5053996;28;45432;-72
2021/10/29 11:32:31;;;;;;;;;13.50;12.25;;;;;;;;5054053;28;46224;-72
2021/10/29 11:35:02;;;;;;;;;12.50;12.50;;;;;;;;5048791;28;45592;-71
2021/10/29 11:37:36;;;;;;;;;12.00;10.00;;;;;;;;5043320;28;45382;-72
2021/10/29 11:40:02;;;;;;;;;12.25;12.25;;;;;;;;5052639;28;45470;-71
2021/10/29 11:42:28;;;;;;;;;15.75;12.75;;;;;;;;5052763;28;46249;-71
2021/10/29 11:44:55;;;;;;;;;13.75;12.00;;;;;;;;5053963;28;45229;-70
2021/10/29 11:47:20;;;;;;;;;12.75;10.75;;;;;;;;5052651;28;45531;-70
2021/10/29 11:49:45;;;;;;;;;10.50;9.25;;;;;;;;5052931;28;45486;-70
2021/10/29 11:52:11;;;;;;;;;13.75;12.25;;;;;;;;5055359;28;45510;-70
2021/10/29 11:54:41;;;;;;;;;10.25;10.25;;;;;;;;5037648;28;46319;-71
2021/10/29 12:07:36;;;;;;;;;13.00;12.25;;;;;;;;5038981;28;45609;-70
2021/10/29 12:10:04;;;;;;;;;11.50;9.75;;;;;;;;5055257;28;45391;-69
2021/10/29 12:12:30;;;;;;;;;7.25;5.75;;;;;;;;5055597;28;46490;-70
2021/10/29 12:15:00;;;;;;;;;10.00;8.25;;;;;;;;5052346;28;45518;-71
2021/10/29 12:17:40;;;;;;;;;11.25;11.00;;;;;;;;5053154;28;45367;-71
2021/10/29 12:20:09;;;;;;;;;8.25;8.25;;;;;;;;5034793;28;45486;-70
2021/10/29 12:25:13;;;;;;;;;13.25;9.50;;;;;;;;5054072;28;45361;-71
2021/10/29 12:27:43;;;;;;;;;13.25;10.25;;;;;;;;5036580;28;45485;-71
2021/10/29 12:30:20;;;;;;;;;12.50;12.50;;;;;;;;5051598;28;45572;-71
2021/10/29 12:38:18;;;;;;;;;14.00;11.75;;;;;;;;5053350;28;45414;-71
2021/10/29 12:52:56;;;;;;;;;10.00;10.00;;;;;;;;4919084;28;45385;-71
2021/10/29 13:03:37;;;;;;;;;11.00;10.25;;;;;;;;4934238;28;45478;-70
2021/10/29 13:06:05;;;;;;;;;11.00;10.25;;;;;;;;4932807;28;47405;-70
2021/10/29 13:08:30;;;;;;;;;9.75;9.75;;;;;;;;4933107;28;45466;-69
2021/10/29 13:10:58;;;;;;;;;10.25;10.25;;;;;;;;4933532;28;45545;-69
2021/10/29 13:13:30;;;;;;;;;8.25;8.25;;;;;;;;4932974;28;45563;-71
2021/10/29 13:16:02;;;;;;;;;10.00;7.75;;;;;;;;4932113;28;47083;-69
2021/10/29 13:18:37;;;;;;;;;12.75;10.75;;;;;;;;4941723;28;46127;-71
2021/10/29 13:37:16;;;;;;;;;8.50;8.50;;;;;;;;4990176;28;45954;-71
2021/10/29 13:53:36;;;;;;;;;10.50;9.50;;;;;;;;4984154;28;45426;-69
2021/10/29 13:58:36;;;;;;;;;10.00;7.75;;;;;;;;4989804;28;45819;-70
2021/10/29 14:40:56;;;;;;;;;9.00;8.00;;;;;;;;5051314;28;46239;-70
2021/10/29 14:43:29;;;;;;;;;9.25;9.25;;;;;;;;5051019;28;45348;-70
2021/10/29 14:48:52;;;;;;;;;12.00;11.00;;;;;;;;5052142;28;45580;-71
2021/10/29 14:51:39;;;;;;;;;11.75;10.00;;;;;;;;5050280;28;45462;-71
2021/10/29 15:05:14;;;;;;;;;7.75;7.00;;;;;;;;5051148;28;45460;-74
2021/10/29 15:15:55;;;;;;;;;9.75;7.50;;;;;;;;5051384;28;45538;-72
2021/10/29 15:29:19;;;;;;;;;9.75;8.00;;;;;;;;5047457;28;45520;-72
2021/10/29 15:42:50;;;;;;;;;12.75;10.25;;;;;;;;5047687;28;45572;-72
2021/10/29 15:45:24;;;;;;;;;12.00;11.00;;;;;;;;5046244;28;47097;-71
2021/10/29 15:48:03;;;;;;;;;11.50;9.25;;;;;;;;5047558;28;45511;-71
2021/10/29 15:50:34;;;;;;;;;10.50;7.50;;;;;;;;5046159;28;45403;-70
2021/10/29 15:52:59;;;;;;;;;12.50;9.75;;;;;;;;5046671;28;45463;-72
2021/10/29 15:55:48;;;;;;;;;6.50;6.00;;;;;;;;5048619;28;46844;-71
2021/10/29 15:58:19;;;;;;;;;14.00;11.75;;;;;;;;5048691;28;45583;-71
2021/10/29 16:17:05;;;;;;;;;15.50;15.50;;;;;;;;4971802;28;45573;-70
2021/10/29 16:19:31;;;;;;;;;10.00;10.00;;;;;;;;4957070;28;45414;-72
2021/10/29 16:21:57;;;;;;;;;11.50;10.50;;;;;;;;4969662;28;45506;-71
2021/10/29 16:24:23;;;;;;;;;14.50;13.50;;;;;;;;4971853;28;45783;-74
2021/10/29 16:26:49;;;;;;;;;11.25;11.00;;;;;;;;4970129;28;45897;-70
2021/10/29 16:29:19;;;;;;;;;16.25;11.25;;;;;;;;4971777;28;45552;-71
2021/10/29 16:31:46;;;;;;;;;16.00;14.25;;;;;;;;4971915;28;45402;-70
2021/10/29 16:34:12;;;;;;;;;12.50;12.00;;;;;;;;4971761;28;45457;-71
2021/10/29 16:36:37;;;;;;;;;13.25;13.25;;;;;;;;4988666;28;46051;-71
2021/10/29 16:39:03;;;;;;;;;19.25;15.00;;;;;;;;4971744;28;45389;-71
2021/10/29 16:41:29;;;;;;;;;10.75;10.75;;;;;;;;4973027;28;45400;-72
2021/10/29 16:43:54;;;;;;;;;16.75;13.00;;;;;;;;5027350;28;45490;-71
2021/10/29 16:46:19;;;;;;;;;17.25;14.75;;;;;;;;5052948;28;47167;-71
2021/10/29 16:48:44;;;;;;;;;17.50;16.25;;;;;;;;5054707;28;45262;-71
2021/10/29 16:51:12;;;;;;;;;16.00;12.50;;;;;;;;5052858;28;45468;-71
2021/10/29 16:53:37;;;;;;;;;10.75;10.50;;;;;;;;5052768;28;45454;-71
2021/10/29 16:56:03;;;;;;;;;13.25;12.50;;;;;;;;5050656;28;45409;-72
2021/10/29 16:58:28;;;;;;;;;15.00;13.00;;;;;;;;5035511;28;45486;-74
2021/10/29 17:00:54;;;;;;;;;14.75;13.25;;;;;;;;5036235;28;45403;-75
2021/10/29 17:03:19;;;;;;;;;13.50;13.50;;;;;;;;5051277;28;45445;-71
2021/10/29 17:05:44;;;;;;;;;13.25;13.25;;;;;;;;5052298;28;46163;-69
2021/10/29 17:08:10;;;;;;;;;16.75;14.00;;;;;;;;5051717;28;45467;-78
2021/10/29 17:10:36;;;;;;;;;14.75;14.75;;;;;;;;5052704;28;45578;-70
2021/10/29 17:13:01;;;;;;;;;14.50;13.25;;;;;;;;5054798;28;45436;-72
2021/10/29 17:15:26;;;;;;;;;13.25;8.00;;;;;;;;5053180;28;46295;-75
2021/10/29 17:17:52;;;;;;;;;15.75;13.50;;;;;;;;5052085;28;45388;-70
2021/10/29 17:20:20;;;;;;;;;11.00;11.00;;;;;;;;5052265;28;45346;-71
2021/10/29 17:22:45;;;;;;;;;15.25;15.00;;;;;;;;5052285;28;45400;-73
2021/10/29 17:25:12;;;;;;;;;13.75;13.75;;;;;;;;5053016;28;46487;-69
2021/10/29 17:27:37;;;;;;;;;15.00;12.50;;;;;;;;5054208;28;45390;-70
2021/10/29 17:30:03;;;;;;;;;12.25;12.25;;;;;;;;5052562;28;45265;-71
2021/10/29 17:32:28;;;;;;;;;12.50;11.25;;;;;;;;5052981;28;45295;-71
2021/10/29 17:34:53;;;;;;;;;13.00;13.00;;;;;;;;5052568;28;46087;-71
2021/10/29 17:37:18;;;;;;;;;13.50;13.25;;;;;;;;5052118;28;45369;-71
2021/10/29 17:39:44;;;;;;;;;15.00;14.75;;;;;;;;5052814;28;45318;-71
2021/10/29 17:42:12;;;;;;;;;12.25;12.25;;;;;;;;5051472;28;45363;-70
2021/10/29 17:44:37;;;;;;;;;19.75;17.75;;;;;;;;5052754;28;46296;-70
2021/10/29 17:47:03;;;;;;;;;15.25;14.75;;;;;;;;5052592;28;45262;-69
2021/10/29 17:49:29;;;;;;;;;14.25;13.00;;;;;;;;5035304;28;45343;-71
2021/10/29 17:51:56;;;;;;;;;18.75;18.00;;;;;;;;5053915;28;45300;-72
2021/10/29 17:54:22;;;;;;;;;11.00;7.25;;;;;;;;5051647;28;45438;-70
2021/10/29 17:56:47;;;;;;;;;14.25;13.00;;;;;;;;5052666;28;46295;-70
2021/10/29 17:59:12;;;;;;;;;13.75;13.75;;;;;;;;5053212;28;45461;-70
2021/10/29 18:01:39;;;;;;;;;15.25;14.75;;;;;;;;5035194;28;45518;-71
2021/10/29 18:04:04;;;;;;;;;18.75;18.25;;;;;;;;5054313;28;46629;-70
2021/10/29 18:06:29;;;;;;;;;14.50;14.50;;;;;;;;5053174;28;45257;-69
2021/10/29 18:09:05;;;;;;;;;13.75;13.00;;;;;;;;5052205;28;45477;-71
2021/10/29 18:11:31;;;;;;;;;17.25;15.00;;;;;;;;5052695;28;45749;-70
2021/10/29 18:13:57;;;;;;;;;11.00;11.00;;;;;;;;5052603;28;46400;-70
2021/10/29 18:16:23;;;;;;;;;19.00;16.00;;;;;;;;5033783;28;45301;-71
2021/10/29 18:18:49;;;;;;;;;13.25;12.25;;;;;;;;5053653;28;45261;-72
2021/10/29 18:21:14;;;;;;;;;13.25;13.00;;;;;;;;5050744;28;45430;-72
2021/10/29 18:23:39;;;;;;;;;15.75;15.50;;;;;;;;5051890;28;45406;-71
2021/10/29 18:26:04;;;;;;;;;18.75;16.75;;;;;;;;5052588;28;45361;-70
2021/10/29 18:28:30;;;;;;;;;14.75;14.75;;;;;;;;5053158;28;45342;-71
2021/10/29 18:30:55;;;;;;;;;12.75;12.00;;;;;;;;5054393;28;45305;-71
2021/10/29 18:33:20;;;;;;;;;16.00;16.00;;;;;;;;5052065;28;47132;-70
2021/10/29 18:35:46;;;;;;;;;16.50;15.25;;;;;;;;5052163;28;45411;-71
2021/10/29 18:38:11;;;;;;;;;15.75;15.50;;;;;;;;5052526;28;45473;-71
2021/10/29 18:40:36;;;;;;;;;16.75;16.00;;;;;;;;5052764;28;45448;-71
2021/10/29 18:43:01;;;;;;;;;15.25;12.00;;;;;;;;5054138;28;45948;-71
2021/10/29 18:45:27;;;;;;;;;16.75;16.50;;;;;;;;5052512;28;45436;-71
2021/10/29 18:47:52;;;;;;;;;19.25;17.00;;;;;;;;5052339;28;45308;-70
2021/10/29 18:50:17;;;;;;;;;8.75;8.00;;;;;;;;5051997;28;45801;-70
2021/10/29 18:52:44;;;;;;;;;15.25;13.50;;;;;;;;5051920;28;46144;-70
2021/10/29 18:55:09;;;;;;;;;16.25;15.25;;;;;;;;5053125;28;45402;-71
2021/10/29 18:57:34;;;;;;;;;18.00;16.25;;;;;;;;5052385;28;45693;-71
2021/10/29 19:00:00;;;;;;;;;20.25;17.50;;;;;;;;5050562;28;45550;-71
2021/10/29 19:02:26;;;;;;;;;16.00;12.50;;;;;;;;5052156;28;48180;-70
2021/10/29 19:04:51;;;;;;;;;22.75;16.00;;;;;;;;5051871;28;45445;-71